Scroll for more >

River gauges, storages, and weirs in the Murray–Darling Basin

Type Locationsort ascending River Water level Flow Volume Release Water temp Salinity Rainfall
Weirs Yarrawonga Weir Upstream Murray 124.69 m 27/05/2017 9:45 Not measured Not measured Not measured Not measured Not measured 0.2 mm 27/05/2017 9:00 Full data
Weirs Yarrawonga Weir Downstream Murray 0.66 m 27/05/2017 9:45 3528 ML/Day 27/05/2017 9:45 Not measured Not measured 14.2°C 27/05/2017 9:45 57.0 μS/cm 27/05/2017 9:45 Not measured Full data
River Gauge Yarrawonga Main Channel Murray 122.93 m 27/05/2017 9:45 Not measured Not measured 0.0 ML/d27/05/2017 8:45 Not measured Not measured Not measured Full data
River Gauge Wilcania Darling 0.81 m 27/05/2017 9:45 544 ML/Day 27/05/2017 9:45 Not measured Not measured 14.4°C 27/05/2017 9:45 527.2 μS/cm 27/05/2017 9:45 Not measured Full data
Weirs Wentworth Weir Murray 27.7 m 27/05/2017 9:45 Not measured Not measured 7124.6 ML/d26/05/2017 7:45 Not measured 177.0 μS/cm 26/05/2017 7:45 0.0 mm 25/05/2017 9:00 Full data
River Gauge Weir 32 Upstream Darling 1.48 m 27/05/2017 9:45 409 ML/Day 27/05/2017 9:45 Not measured Not measured 15.1°C 27/05/2017 9:45 605.8 μS/cm 27/05/2017 9:45 Not measured Full data
River Gauge Wakool Junction Murray 2.66 m 27/05/2017 9:45 5826 ML/Day 27/05/2017 9:45 Not measured Not measured 13.7°C 27/05/2017 9:45 128.4 μS/cm 27/05/2017 9:45 Not measured Full data
River Gauge Wakool Canal Wakool -0.55 m 27/05/2017 9:45 Not measured Not measured 0.0 ML/d26/05/2017 8:45 Not measured Not measured Not measured Full data
Weirs Torrumbarry Weir Upstream Murray 85.94 m 27/05/2017 8:45 Not measured 36 GL 27/05/2017 8:45 Not measured 13.9°C 26/05/2017 7:45 80.0 μS/cm 26/05/2017 7:45 0.0 mm 27/05/2017 9:00 Full data
Weirs Torrumbarry Weir Downstream Murray 1.4 m 27/05/2017 9:45 3438 ML/Day 27/05/2017 9:45 Not measured Not measured 14.1°C 27/05/2017 9:45 82.6 μS/cm 27/05/2017 9:45 Not measured Full data
River Gauge Torrumbarry Headworks Murray 83.84 m 27/05/2017 9:45 Not measured Not measured 446.4 ML/d27/05/2017 9:45 Not measured Not measured Not measured Full data
River Gauge Tocumwal Murray 1.28 m 27/05/2017 9:15 3370 ML/Day 27/05/2017 9:15 Not measured Not measured 13.4°C 27/05/2017 9:15 70.8 μS/cm 27/05/2017 9:15 Not measured Full data
River Gauge Tauwitchere Barrage Murray 0.71 m 27/05/2017 8:45 Not measured Not measured Not measured Not measured Not measured Not measured Full data
River Gauge Tallandoon Mitta 1.37 m 27/05/2017 9:45 540 ML/Day 27/05/2017 9:45 Not measured Not measured 11.8°C 27/05/2017 9:45 52.9 μS/cm 27/05/2017 9:45 Not measured Full data
River Gauge Swan Hill Murray 0.98 m 27/05/2017 9:15 4280 ML/Day 27/05/2017 9:15 Not measured Not measured 14.0°C 27/05/2017 9:15 120.7 μS/cm 27/05/2017 9:15 Not measured Full data
River Gauge Stoney Crossing Murray 1.57 m 27/05/2017 9:45 799 ML/Day 27/05/2017 9:45 Not measured 808.6 ML/d27/05/2017 7:45 13.9°C 27/05/2017 9:45 255.5 μS/cm 27/05/2017 9:45 Not measured Full data
Weirs Steven's Weir Upstream Wakool 3.99 m 27/05/2017 10:00 Not measured Not measured Not measured Not measured Not measured Not measured Full data
Weirs Steven's Weir Downstream Wakool 0.57 m 27/05/2017 9:45 277 ML/Day 27/05/2017 9:45 Not measured Not measured 13.7°C 27/05/2017 9:45 64.0 μS/cm 27/05/2017 9:45 0.0 mm 25/05/2017 9:00 Full data
River Gauge Rufus River Murray 20.35 m 26/05/2017 7:45 Not measured Not measured 628.1 ML/d26/05/2017 7:45 Not measured 241.9 μS/cm 27/05/2017 8:45 Not measured Full data
River Gauge Rochester Campaspe 1.68 m 27/05/2017 9:45 63 ML/Day 27/05/2017 9:45 Not measured Not measured 12.4°C 27/05/2017 9:45 443.0 μS/cm 27/05/2017 9:45 0.0 mm 27/05/2017 9:00 Full data
River Gauge Pinegrove Murray 1.2 m 27/05/2017 10:00 270 ML/Day 27/05/2017 10:00 Not measured Not measured 9.8°C 27/05/2017 10:00 101.0 μS/cm 27/05/2017 10:00 0.0 mm 27/05/2017 9:00 Full data
River Gauge Peechelba Ovens 126.52 m 27/05/2017 9:45 587 ML/Day 27/05/2017 9:45 Not measured Not measured 12.3°C 27/05/2017 9:45 73.3 μS/cm 27/05/2017 9:45 Not measured Full data
River Gauge Murray Bridge Murray 0.57 m 27/05/2017 8:45 Not measured Not measured Not measured 15.2°C 27/05/2017 8:45 470.3 μS/cm 27/05/2017 8:45 Not measured Full data
River Gauge Mundoo Barrage Murray 0.6 m 26/05/2017 7:45 Not measured Not measured Not measured Not measured Not measured Not measured Full data
River Gauge Mulwala Canal Murray Not measured Not measured Not measured 0.0 ML/d26/05/2017 7:45 Not measured Not measured Not measured Full data
River Gauge Morgan Downstream Murray Not measured Not measured Not measured 3942.3 ML/d27/05/2017 8:45 Not measured 507.3 μS/cm 27/05/2017 5:45 Not measured Full data
Weirs Mildura Weir downstream Murray 30.94 m 27/05/2017 9:30 Not measured Not measured Not measured 14.9°C 27/05/2017 9:30 177.3 μS/cm 27/05/2017 9:30 Not measured Full data
Storage Menindee Lakes Darling Not measured Not measured 787 GL 26/05/2017 7:45 Not measured Not measured Not measured Not measured Full data
River Gauge McCoy Bridge Goulburn 1.5 m 27/05/2017 9:45 967 ML/Day 27/05/2017 9:45 Not measured Not measured 12.8°C 27/05/2017 9:45 119.0 μS/cm 27/05/2017 9:45 Not measured Full data
Weirs Lock 9 Upstream Murray 27.4 m 26/05/2017 7:45 Not measured Not measured Not measured 15.0°C 27/05/2017 8:45 228.3 μS/cm 27/05/2017 8:45 Not measured Full data
Weirs Lock 9 Downstream Murray 24.64 m 27/05/2017 8:45 Not measured Not measured Not measured Not measured Not measured Not measured Full data
Weirs Lock 8 Upstream Murray 24.59 m 27/05/2017 8:45 Not measured Not measured Not measured 14.9°C 27/05/2017 8:45 201.2 μS/cm 27/05/2017 8:45 Not measured Full data
Weirs Lock 7 Upstream Murray 22.13 m 27/05/2017 8:45 Not measured Not measured Not measured 14.8°C 27/05/2017 8:45 198.6 μS/cm 27/05/2017 8:45 Not measured Full data
Weirs Lock 7 Downstream Murray 20.24 m 27/05/2017 8:45 Not measured Not measured Not measured Not measured Not measured Not measured Full data
Weirs Lock 6 Upstream Murray 19.32 m 27/05/2017 8:45 Not measured Not measured Not measured 14.8°C 27/05/2017 8:45 229.9 μS/cm 27/05/2017 8:45 Not measured Full data
Weirs Lock 6 Downstream Murray 16.39 m 27/05/2017 8:45 Not measured Not measured Not measured Not measured Not measured Not measured Full data
Weirs Lock 5 Upstream Murray 16.33 m 27/05/2017 8:45 Not measured Not measured Not measured 15.3°C 27/05/2017 8:45 294.7 μS/cm 27/05/2017 8:45 Not measured Full data
Weirs Lock 5 Downstream Murray 13.41 m 27/05/2017 8:45 Not measured Not measured Not measured Not measured Not measured Not measured Full data
Weirs Lock 4 Upstream Murray 13.24 m 27/05/2017 8:45 Not measured Not measured Not measured Not measured Not measured Not measured Full data
Weirs Lock 4 Downstream Murray 10.64 m 27/05/2017 8:45 Not measured Not measured Not measured Not measured Not measured Not measured Full data
Weirs Lock 3 Upstream Murray 9.83 m 27/05/2017 8:45 Not measured Not measured Not measured Not measured Not measured Not measured Full data
Weirs Lock 3 Downstream Murray 6.39 m 27/05/2017 8:45 Not measured Not measured Not measured Not measured Not measured Not measured Full data
Weirs Lock 2 Upstream Murray 6.14 m 27/05/2017 8:45 Not measured Not measured Not measured 15.3°C 27/05/2017 8:45 477.5 μS/cm 27/05/2017 8:45 Not measured Full data
Weirs Lock 2 Downstream Murray 3.37 m 27/05/2017 8:45 Not measured Not measured Not measured Not measured Not measured Not measured Full data
Weirs Lock 1 Upstream Murray 3.14 m 27/05/2017 8:45 Not measured Not measured Not measured 15.0°C 27/05/2017 8:45 537.4 μS/cm 27/05/2017 8:45 Not measured Full data
Weirs Lock 1 Downstream Murray 0.61 m 27/05/2017 8:45 Not measured Not measured 5611.6 ML/d26/05/2017 7:45 Not measured Not measured Not measured Full data
Storage Lake Victoria Murray 24.45 m 27/05/2017 8:45 Not measured 391 GL 27/05/2017 8:45 Not measured 14.2°C 27/05/2017 8:45 220.7 μS/cm 27/05/2017 8:45 Not measured Full data
River Gauge Lake Alexandrina Murray 0.63 m 27/05/2017 5:45 Not measured 1533 GL 27/05/2017 5:45 Not measured Not measured 548.8 μS/cm 27/05/2017 8:45 Not measured Full data
River Gauge Lake Albert Murray 0.69 m 27/05/2017 5:45 Not measured 260 GL 27/05/2017 5:45 Not measured Not measured Not measured Not measured Full data
River Gauge Kerang Loddon 0.42 m 27/05/2017 9:45 293 ML/Day 27/05/2017 9:45 Not measured Not measured 13.8°C 27/05/2017 9:45 466.8 μS/cm 27/05/2017 9:45 Not measured Full data
River Gauge Jingellic Murray 2.03 m 27/05/2017 9:45 7106 ML/Day 27/05/2017 9:45 Not measured Not measured 11.2°C 27/05/2017 9:45 51.5 μS/cm 27/05/2017 9:45 0.2 mm 27/05/2017 9:00 Full data
Storage Hume Dam Murray 186.05 m 27/05/2017 10:00 Not measured 1944 GL 27/05/2017 10:00 2854.0 ML/d27/05/2017 8:00 Not measured Not measured 0.2 mm 27/05/2017 9:00 Full data
River Gauge Hinnomunjie Mitta 0.58 m 27/05/2017 9:15 269 ML/Day 27/05/2017 9:15 Not measured Not measured 6.1°C 27/05/2017 9:15 54.8 μS/cm 27/05/2017 9:15 0.0 mm 27/05/2017 9:00 Full data
River Gauge Gulpa Creek Offtake Murray 1.93 m 27/05/2017 9:45 153 ML/Day 27/05/2017 9:45 Not measured Not measured Not measured Not measured Not measured Full data
River Gauge Frenchman Creek Murray 27.37 m 26/05/2017 7:45 Not measured Not measured 1182.2 ML/d26/05/2017 7:45 Not measured Not measured Not measured Full data
River Gauge Flow to South Australia Murray Not measured Not measured Not measured 6682.3 ML/d26/05/2017 7:45 Not measured Not measured Not measured Full data
Weirs Euston Weir Upstream Murray 47.63 m 26/05/2017 7:45 Not measured 37 GL 26/05/2017 7:45 Not measured Not measured Not measured 0.0 mm 25/05/2017 9:00 Full data
Weirs Euston Weir Downstream Murray 43.24 m 27/05/2017 9:45 6177 ML/Day 27/05/2017 9:45 Not measured Not measured 13.7°C 27/05/2017 9:45 143.3 μS/cm 27/05/2017 9:45 Not measured Full data
River Gauge Edward River Offtake Murray 1.49 m 27/05/2017 10:00 436 ML/Day 27/05/2017 10:00 Not measured Not measured 13.6°C 27/05/2017 9:45 55.7 μS/cm 27/05/2017 9:45 Not measured Full data
River Gauge Edward Escape Wakool 0.09 m 27/05/2017 8:45 20 ML/Day 27/05/2017 8:45 Not measured Not measured 12.4°C 27/05/2017 8:45 62.8 μS/cm 27/05/2017 8:45 Not measured Full data
River Gauge Echuca Wharf Murray 86.18 m 26/05/2017 7:45 Not measured Not measured Not measured Not measured Not measured Not measured Full data
River Gauge Doctors Point Murray 1.91 m 27/05/2017 10:00 3224 ML/Day 27/05/2017 10:00 Not measured Not measured 14.7°C 27/05/2017 10:00 53.8 μS/cm 27/05/2017 10:00 Not measured Full data
Storage Dartmouth Dam Mitta 472.05 m 27/05/2017 10:15 Not measured 3006 GL 27/05/2017 10:15 Not measured Not measured Not measured Not measured Full data
River Gauge Corowa Murray 0.69 m 27/05/2017 10:00 1874 ML/Day 27/05/2017 10:00 Not measured Not measured 13.4°C 27/05/2017 10:00 78.5 μS/cm 27/05/2017 10:00 Not measured Full data
River Gauge Colignan Murray 1.99 m 27/05/2017 9:30 6958 ML/Day 27/05/2017 9:30 Not measured Not measured 14.6°C 27/05/2017 9:30 132.6 μS/cm 27/05/2017 9:30 Not measured Full data
River Gauge Colemans Mitta 0.9 m 27/05/2017 10:15 218 ML/Day 27/05/2017 10:15 Not measured Not measured 10.5°C 27/05/2017 9:45 45.8 μS/cm 27/05/2017 9:45 Not measured Full data
River Gauge Burtundy Darling 0.81 m 27/05/2017 9:45 325 ML/Day 27/05/2017 9:45 Not measured Not measured 13.8°C 27/05/2017 9:45 606.8 μS/cm 27/05/2017 9:45 Not measured Full data
River Gauge Bringenbrong Bridge Murray 1.61 m 27/05/2017 10:00 4405 ML/Day 27/05/2017 10:00 Not measured Not measured Not measured Not measured Not measured Full data
River Gauge Biggara Murray 0.42 m 27/05/2017 10:00 457 ML/Day 27/05/2017 10:00 Not measured Not measured 9.3°C 27/05/2017 10:00 54.1 μS/cm 27/05/2017 10:00 0.0 mm 27/05/2017 9:00 Full data
River Gauge Bandiana Kiewa 0.93 m 27/05/2017 9:45 438 ML/Day 27/05/2017 9:45 Not measured Not measured 11.3°C 27/05/2017 9:45 77.6 μS/cm 27/05/2017 9:45 Not measured Full data
River Gauge Balranald Murrumbidgee 0.75 m 27/05/2017 8:45 404 ML/Day 27/05/2017 8:45 Not measured Not measured 13.1°C 27/05/2017 8:45 181.1 μS/cm 27/05/2017 8:45 Not measured Full data
River Gauge Albury (Union Bridge) Murray 0.99 m 27/05/2017 10:00 Not measured Not measured Not measured 14.4°C 27/05/2017 10:00 58.4 μS/cm 27/05/2017 10:00 Not measured Full data